createdAt,value
2023-01-02T00:04:10.649Z,2.72
2023-01-02T00:06:38.360Z,2.56
2023-01-02T00:09:07.947Z,2.50
2023-01-02T00:11:35.102Z,2.30
2023-01-02T00:14:02.129Z,2.17
2023-01-02T00:16:29.886Z,2.12
2023-01-02T00:18:56.994Z,2.04
2023-01-02T00:21:24.338Z,1.95
2023-01-02T00:23:51.477Z,1.85
2023-01-02T00:26:18.459Z,1.85
2023-01-02T00:28:45.468Z,1.91
2023-01-02T00:31:13.851Z,1.85
2023-01-02T00:33:40.964Z,1.81
2023-01-02T00:36:08.724Z,1.72
2023-01-02T00:38:38.274Z,1.75
2023-01-02T00:41:05.983Z,1.71
2023-01-02T00:43:32.881Z,1.70
2023-01-02T00:45:59.770Z,1.72
2023-01-02T00:48:27.705Z,1.77
2023-01-02T00:50:54.585Z,1.74
2023-01-02T00:53:23.031Z,1.74
2023-01-02T00:55:50.009Z,1.82
2023-01-02T00:58:16.937Z,1.77
2023-01-02T01:00:43.944Z,1.78
2023-01-02T01:03:11.225Z,1.87
2023-01-02T01:05:40.246Z,1.74
2023-01-02T01:08:07.256Z,1.67
2023-01-02T01:10:35.569Z,1.65
2023-01-02T01:13:02.623Z,1.74
2023-01-02T01:15:29.575Z,1.67
2023-01-02T01:17:56.569Z,1.65
2023-01-02T01:20:23.549Z,1.69
2023-01-02T01:22:50.406Z,1.70
2023-01-02T01:25:17.453Z,1.67
2023-01-02T01:27:45.912Z,1.69
2023-01-02T01:30:13.067Z,1.51
2023-01-02T01:32:39.922Z,1.48
2023-01-02T01:35:07.070Z,1.47
2023-01-02T01:37:33.928Z,1.48
2023-01-02T01:40:00.819Z,1.48
2023-01-02T01:42:34.302Z,1.44
2023-01-02T01:45:01.320Z,1.48
2023-01-02T01:47:40.786Z,1.49
2023-01-02T01:50:13.917Z,1.53
2023-01-02T01:52:44.879Z,1.52
2023-01-02T01:55:31.798Z,1.43
2023-01-02T01:58:04.592Z,1.38
2023-01-02T02:00:31.624Z,1.37
2023-01-02T02:08:52.462Z,1.34
2023-01-02T02:11:19.987Z,1.36
2023-01-02T02:13:47.533Z,1.42
2023-01-02T02:16:27.264Z,1.40
2023-01-02T02:18:57.557Z,1.43
2023-01-02T02:21:38.652Z,1.47
2023-01-02T02:24:22.790Z,1.34
2023-01-02T02:26:49.857Z,1.35
2023-01-02T02:29:35.720Z,1.34
2023-01-02T02:32:05.499Z,1.25
2023-01-02T02:34:38.612Z,1.19
2023-01-02T02:37:05.495Z,1.24
2023-01-02T02:39:51.151Z,1.16
2023-01-02T02:42:18.024Z,1.16
2023-01-02T02:44:45.231Z,1.17
2023-01-02T02:47:21.554Z,1.22
2023-01-02T02:50:07.401Z,1.24
2023-01-02T02:53:00.387Z,1.15
2023-01-02T02:55:30.894Z,1.18
2023-01-02T02:57:59.833Z,1.21
2023-01-02T03:00:26.762Z,1.21
2023-01-02T03:02:53.848Z,1.28
2023-01-02T03:08:06.937Z,1.33
2023-01-02T03:10:42.833Z,1.29
2023-01-02T03:13:12.867Z,1.22
2023-01-02T03:16:00.633Z,1.20
2023-01-02T03:18:41.216Z,1.09
2023-01-02T03:21:11.070Z,1.16
2023-01-02T03:23:48.557Z,1.19
2023-01-02T03:26:18.367Z,1.16
2023-01-02T03:28:47.496Z,1.21
2023-01-02T03:31:17.710Z,1.20
2023-01-02T03:33:48.886Z,1.16
2023-01-02T03:36:22.427Z,1.12
2023-01-02T03:39:02.841Z,1.05
2023-01-02T03:41:33.123Z,1.06
2023-01-02T03:44:01.531Z,1.02
2023-01-02T03:46:47.107Z,0.98
2023-01-02T03:49:14.203Z,0.95
2023-01-02T03:51:42.065Z,0.98
2023-01-02T03:54:09.495Z,0.95
2023-01-02T03:56:42.634Z,0.99
2023-01-02T03:59:18.430Z,1.02
2023-01-02T04:01:49.787Z,0.94
2023-01-02T04:04:16.766Z,0.90
2023-01-02T04:06:47.244Z,0.87
2023-01-02T04:09:17.150Z,0.90
2023-01-02T04:11:48.138Z,0.89
2023-01-02T04:14:25.032Z,0.85
2023-01-02T04:16:53.666Z,0.83
2023-01-02T04:19:25.907Z,0.83
2023-01-02T04:21:56.396Z,0.81
2023-01-02T04:24:27.130Z,0.76
2023-01-02T04:27:26.813Z,0.73
2023-01-02T04:29:53.875Z,0.73
2023-01-02T04:32:23.564Z,0.73
2023-01-02T04:34:51.715Z,0.72
2023-01-02T04:37:29.936Z,0.72
2023-01-02T04:39:59.433Z,0.71
2023-01-02T04:42:27.034Z,0.73
2023-01-02T04:44:54.478Z,0.67
2023-01-02T04:47:22.079Z,0.66
2023-01-02T04:49:49.057Z,0.68
2023-01-02T04:52:15.934Z,0.67
2023-01-02T04:54:43.234Z,0.70
2023-01-02T04:57:10.299Z,0.67
2023-01-02T04:59:37.258Z,0.62
2023-01-02T05:02:04.854Z,0.54
2023-01-02T05:04:31.942Z,0.51
2023-01-02T05:06:58.970Z,0.54
2023-01-02T05:09:26.012Z,0.46
2023-01-02T05:11:53.256Z,0.36
2023-01-02T05:14:20.312Z,0.44
2023-01-02T05:16:47.344Z,0.41
2023-01-02T05:19:14.444Z,0.34
2023-01-02T05:21:59.699Z,0.34
2023-01-02T05:24:27.834Z,0.37
2023-01-02T05:26:55.156Z,0.32
2023-01-02T05:29:22.195Z,0.34
2023-01-02T05:31:50.836Z,0.24
2023-01-02T05:34:17.932Z,0.31
2023-01-02T05:36:44.816Z,0.23
2023-01-02T05:39:13.033Z,0.18
2023-01-02T05:41:41.193Z,0.18
2023-01-02T05:44:09.455Z,0.15
2023-01-02T05:46:37.563Z,0.16
2023-01-02T05:49:08.365Z,0.15
2023-01-02T05:51:35.764Z,0.15
2023-01-02T05:54:03.163Z,0.13
2023-01-02T05:56:30.191Z,0.14
2023-01-02T05:58:57.471Z,0.17
2023-01-02T06:01:25.789Z,0.12
2023-01-02T06:03:54.450Z,0.04
2023-01-02T06:06:22.978Z,0.05
2023-01-02T06:08:50.361Z,0.01
2023-01-02T06:11:17.403Z,-0.03
2023-01-02T06:13:46.107Z,-0.11
2023-01-02T06:16:13.181Z,-0.05
2023-01-02T06:18:40.707Z,-0.07
2023-01-02T06:21:13.725Z,-0.04
2023-01-02T06:23:41.018Z,-0.09
2023-01-02T06:26:12.897Z,-0.09
2023-01-02T06:28:39.975Z,-0.10
2023-01-02T06:31:08.273Z,-0.11
2023-01-02T06:33:35.378Z,-0.14
2023-01-02T06:36:06.172Z,-0.12
2023-01-02T06:38:33.592Z,-0.10
2023-01-02T06:41:01.308Z,-0.08
2023-01-02T06:43:29.448Z,-0.10
2023-01-02T06:46:00.442Z,-0.12
2023-01-02T06:48:27.760Z,-0.16
2023-01-02T06:50:55.397Z,-0.10
2023-01-02T06:53:22.348Z,-0.15
2023-01-02T06:55:52.951Z,-0.10
2023-01-02T06:58:20.260Z,-0.18
2023-01-02T07:00:47.869Z,-0.20
2023-01-02T07:03:15.059Z,-0.20
2023-01-02T07:05:41.994Z,-0.25
2023-01-02T07:08:09.658Z,-0.26
2023-01-02T07:10:37.214Z,-0.23
2023-01-02T07:13:04.196Z,-0.20
2023-01-02T07:15:32.358Z,-0.22
2023-01-02T07:17:59.299Z,-0.21
2023-01-02T07:20:26.307Z,-0.22
2023-01-02T07:22:53.691Z,-0.22
2023-01-02T07:25:21.458Z,-0.21
2023-01-02T07:27:48.628Z,-0.19
2023-01-02T07:30:16.484Z,-0.17
2023-01-02T07:32:43.696Z,-0.17
2023-01-02T07:35:12.176Z,-0.16
2023-01-02T07:37:39.060Z,-0.15
2023-01-02T07:40:06.286Z,-0.10
2023-01-02T07:42:33.192Z,-0.15
2023-01-02T07:45:00.187Z,-0.14
2023-01-02T07:47:27.084Z,-0.14
2023-01-02T07:49:54.228Z,-0.12
2023-01-02T07:52:22.549Z,-0.17
2023-01-02T07:54:50.426Z,-0.09
2023-01-02T07:57:17.476Z,-0.09
2023-01-02T07:59:47.210Z,-0.06
2023-01-02T08:02:14.298Z,-0.16
2023-01-02T08:04:41.328Z,-0.06
2023-01-02T08:07:12.235Z,-0.07
2023-01-02T08:09:41.054Z,-0.05
2023-01-02T08:12:10.719Z,-0.03
2023-01-02T08:14:37.605Z,-0.05
2023-01-02T08:17:04.525Z,-0.06
2023-01-02T08:19:31.476Z,-0.03
2023-01-02T08:21:58.470Z,-0.02
2023-01-02T08:24:26.113Z,0.03
2023-01-02T08:26:53.083Z,-0.07
2023-01-02T08:29:19.949Z,0.01
2023-01-02T08:31:47.019Z,0.06
2023-01-02T08:34:16.224Z,0.04
2023-01-02T08:36:44.025Z,0.03
2023-01-02T08:39:14.022Z,0.02
2023-01-02T08:41:41.394Z,0.08
2023-01-02T08:44:12.778Z,0.04
2023-01-02T08:46:42.899Z,0.01
2023-01-02T08:49:12.605Z,-0.01
2023-01-02T08:51:41.998Z,0.08
2023-01-02T08:54:08.919Z,0.06
2023-01-02T08:56:37.806Z,0.09
2023-01-02T08:59:06.310Z,0.04
2023-01-02T09:01:34.038Z,0.12
2023-01-02T09:04:06.241Z,0.13
2023-01-02T09:06:38.568Z,0.14
2023-01-02T09:09:11.605Z,0.17
2023-01-02T09:11:40.212Z,0.18
2023-01-02T09:14:07.209Z,0.20
2023-01-02T09:16:34.302Z,0.20
2023-01-02T09:19:01.803Z,0.17
2023-01-02T09:21:28.890Z,0.22
2023-01-02T09:23:55.791Z,0.23
2023-01-02T09:26:22.688Z,0.20
2023-01-02T09:28:49.745Z,0.24
2023-01-02T09:31:17.278Z,0.23
2023-01-02T09:33:47.555Z,0.21
2023-01-02T09:36:15.658Z,0.24
2023-01-02T09:38:42.844Z,0.24
2023-01-02T09:41:15.613Z,0.32
2023-01-02T09:43:50.344Z,0.37
2023-01-02T09:46:24.555Z,0.30
2023-01-02T09:48:51.892Z,0.31
2023-01-02T09:51:18.989Z,0.35
2023-01-02T09:53:46.147Z,0.33
2023-01-02T09:56:33.896Z,0.30
2023-01-02T09:59:10.021Z,0.36
2023-01-02T10:01:54.652Z,0.36
2023-01-02T10:04:49.798Z,0.30
2023-01-02T10:07:22.495Z,0.30
2023-01-02T10:10:08.444Z,0.26
2023-01-02T10:12:38.433Z,0.24
2023-01-02T10:15:10.752Z,0.22
2023-01-02T10:17:39.746Z,0.30
2023-01-02T10:20:17.682Z,0.29
2023-01-02T10:22:56.207Z,0.22
2023-01-02T10:25:48.108Z,0.21
2023-01-02T10:28:41.639Z,0.31
2023-01-02T10:31:17.975Z,0.33
2023-01-02T10:34:04.038Z,0.31
2023-01-02T10:36:32.531Z,0.31
2023-01-02T10:39:06.731Z,0.29
2023-01-02T10:41:34.139Z,0.29
2023-01-02T10:44:18.089Z,0.28
2023-01-02T10:46:45.041Z,0.23
2023-01-02T10:49:12.670Z,0.17
2023-01-02T10:51:45.135Z,0.17
2023-01-02T10:54:12.795Z,0.18
2023-01-02T10:56:40.639Z,0.15
2023-01-02T10:59:24.398Z,0.12
2023-01-02T11:01:58.271Z,0.16
2023-01-02T11:04:26.558Z,0.16
2023-01-02T11:06:55.929Z,0.08
2023-01-02T11:09:24.900Z,0.04
2023-01-02T11:11:59.157Z,0.02
2023-01-02T11:14:31.602Z,0.02
2023-01-02T11:17:20.128Z,0.02
2023-01-02T11:19:49.086Z,-0.04
2023-01-02T11:22:17.940Z,0.01
2023-01-02T11:25:05.098Z,-0.01
2023-01-02T11:27:36.296Z,-0.04
2023-01-02T11:30:06.055Z,-0.02
2023-01-02T11:32:38.956Z,-0.06
2023-01-02T11:35:06.696Z,-0.14
2023-01-02T11:37:34.270Z,-0.10
2023-01-02T11:40:03.223Z,-0.08
2023-01-02T11:42:48.922Z,-0.11
2023-01-02T11:45:18.233Z,-0.14
2023-01-02T11:47:48.064Z,-0.11
2023-01-02T11:50:29.075Z,-0.15
2023-01-02T11:52:58.693Z,-0.16
2023-01-02T11:55:33.008Z,-0.14
2023-01-02T11:58:06.071Z,-0.13
2023-01-02T12:00:35.341Z,-0.20
2023-01-02T12:03:06.842Z,-0.21
2023-01-02T12:05:45.199Z,-0.28
2023-01-02T12:08:24.850Z,-0.29
2023-01-02T12:11:03.223Z,-0.29
2023-01-02T12:13:33.207Z,-0.24
2023-01-02T12:16:21.777Z,-0.20
2023-01-02T12:18:59.294Z,-0.24
2023-01-02T12:21:29.670Z,-0.23
2023-01-02T12:24:17.710Z,-0.20
2023-01-02T12:26:53.919Z,-0.08
2023-01-02T12:29:46.168Z,0.04
2023-01-02T12:32:37.376Z,0.06
2023-01-02T12:35:22.859Z,0.10
2023-01-02T12:37:55.176Z,0.12
2023-01-02T12:40:44.072Z,0.09
2023-01-02T12:43:35.753Z,-0.01
2023-01-02T12:46:17.337Z,-0.15
2023-01-02T12:49:04.889Z,-0.26
2023-01-02T12:52:07.383Z,-0.21
2023-01-02T12:54:34.321Z,-0.28
2023-01-02T12:57:01.286Z,-0.35
2023-01-02T12:59:46.988Z,-0.44
2023-01-02T13:02:17.106Z,-0.51
2023-01-02T13:04:51.903Z,-0.58
2023-01-02T13:07:31.710Z,-0.58
2023-01-02T13:10:00.990Z,-0.59
2023-01-02T13:12:30.111Z,-0.63
2023-01-02T13:15:03.043Z,-0.66
2023-01-02T13:17:33.574Z,-0.67
2023-01-02T13:20:19.800Z,-0.64
2023-01-02T13:22:56.017Z,-0.69
2023-01-02T13:25:23.753Z,-0.71
2023-01-02T13:27:51.638Z,-0.72
2023-01-02T13:30:33.926Z,-0.75
2023-01-02T13:33:02.142Z,-0.74
2023-01-02T13:35:31.630Z,-0.77
2023-01-02T13:37:58.951Z,-0.80
2023-01-02T13:40:33.002Z,-0.78
2023-01-02T13:43:03.638Z,-0.83
2023-01-02T13:45:34.880Z,-0.77
2023-01-02T13:48:04.063Z,-0.75
2023-01-02T13:50:32.974Z,-0.76
2023-01-02T13:53:05.776Z,-0.79
2023-01-02T13:55:34.180Z,-0.82
2023-01-02T13:58:13.648Z,-0.79
2023-01-02T14:00:53.504Z,-0.83
2023-01-02T14:03:24.218Z,-0.82
2023-01-02T14:05:57.829Z,-0.82
2023-01-02T14:08:24.896Z,-0.81
2023-01-02T14:10:54.352Z,-0.81
2023-01-02T14:13:44.409Z,-0.80
2023-01-02T14:16:20.946Z,-0.84
2023-01-02T14:19:16.724Z,-0.81
2023-01-02T14:21:43.695Z,-0.79
2023-01-02T14:24:17.614Z,-0.81
2023-01-02T14:26:51.191Z,-0.81
2023-01-02T14:29:21.820Z,-0.81
2023-01-02T14:32:01.172Z,-0.84
2023-01-02T14:34:28.394Z,-0.85
2023-01-02T14:36:56.861Z,-0.87
2023-01-02T14:39:28.998Z,-0.89
2023-01-02T14:42:14.437Z,-0.92
2023-01-02T14:44:43.488Z,-0.93
2023-01-02T14:47:15.535Z,-0.94
2023-01-02T14:49:43.704Z,-0.92
2023-01-02T14:52:17.486Z,-0.95
2023-01-02T14:54:56.154Z,-0.94
2023-01-02T14:57:29.990Z,-0.95
2023-01-02T14:59:59.097Z,-0.93
2023-01-02T15:02:36.960Z,-0.94
2023-01-02T15:05:13.286Z,-0.97
2023-01-02T15:07:48.810Z,-0.94
2023-01-02T15:10:20.284Z,-0.95
2023-01-02T15:13:07.827Z,-0.95
2023-01-02T15:15:34.879Z,-0.94
2023-01-02T15:18:05.371Z,-0.96
2023-01-02T15:20:34.524Z,-0.99
2023-01-02T15:23:01.476Z,-0.97
2023-01-02T15:25:33.219Z,-0.94
2023-01-02T15:28:00.184Z,-0.97
2023-01-02T15:30:29.559Z,-0.96
2023-01-02T15:32:56.571Z,-0.95
2023-01-02T15:35:27.768Z,-0.96
2023-01-02T15:37:54.991Z,-0.97
2023-01-02T15:40:32.154Z,-1.04
2023-01-02T15:43:22.710Z,-1.04
2023-01-02T15:45:51.710Z,-1.05
2023-01-02T15:48:20.802Z,-1.03
2023-01-02T15:50:50.314Z,-1.01
2023-01-02T15:53:29.608Z,-1.05
2023-01-02T15:55:57.139Z,-1.02
2023-01-02T15:58:25.845Z,-1.05
2023-01-02T16:01:11.590Z,-1.05
2023-01-02T16:04:03.103Z,-1.02
2023-01-02T16:06:29.725Z,-1.08
2023-01-02T16:08:58.342Z,-1.05
2023-01-02T16:11:25.827Z,-1.11
2023-01-02T16:14:20.672Z,-1.13
2023-01-02T16:16:55.812Z,-1.13
2023-01-02T16:19:22.691Z,-1.18
2023-01-02T16:21:51.167Z,-1.17
2023-01-02T16:24:23.891Z,-1.19
2023-01-02T16:26:50.841Z,-1.22
2023-01-02T16:29:18.852Z,-1.22
2023-01-02T16:31:56.343Z,-1.24
2023-01-02T16:34:29.255Z,-1.28
2023-01-02T16:37:09.255Z,-1.29
2023-01-02T16:39:42.244Z,-1.34
2023-01-02T16:42:27.605Z,-1.33
2023-01-02T16:44:55.685Z,-1.36
2023-01-02T16:47:34.150Z,-1.39
2023-01-02T16:50:01.211Z,-1.37
2023-01-02T16:52:29.559Z,-1.43
2023-01-02T16:54:56.641Z,-1.43
2023-01-02T16:57:23.802Z,-1.39
2023-01-02T16:59:50.701Z,-1.45
2023-01-02T17:02:17.734Z,-1.47
2023-01-02T17:04:44.655Z,-1.47
2023-01-02T17:07:15.708Z,-1.49
2023-01-02T17:09:45.467Z,-1.49
2023-01-02T17:12:12.383Z,-1.50
2023-01-02T17:14:39.360Z,-1.49
2023-01-02T17:17:06.648Z,-1.52
2023-01-02T17:19:34.090Z,-1.54
2023-01-02T17:22:00.961Z,-1.56
2023-01-02T17:24:27.863Z,-1.58
2023-01-02T17:26:54.921Z,-1.59
2023-01-02T17:29:22.039Z,-1.62
2023-01-02T17:31:48.992Z,-1.62
2023-01-02T17:34:16.009Z,-1.63
2023-01-02T17:36:43.022Z,-1.64
2023-01-02T17:39:10.320Z,-1.64
2023-01-02T17:41:37.174Z,-1.68
2023-01-02T17:44:04.240Z,-1.70
2023-01-02T17:47:04.515Z,-1.69
2023-01-02T17:49:18.406Z,-1.73
2023-01-02T17:51:45.280Z,-1.75
2023-01-02T17:54:12.237Z,-1.75
2023-01-02T17:56:39.473Z,-1.80
2023-01-02T17:59:06.845Z,-1.77
2023-01-02T18:01:34.063Z,-1.83
2023-01-02T18:04:01.082Z,-1.80
2023-01-02T18:06:29.203Z,-1.82
2023-01-02T18:08:56.261Z,-1.83
2023-01-02T18:11:23.957Z,-1.86
2023-01-02T18:13:53.326Z,-1.86
2023-01-02T18:16:22.554Z,-1.89
2023-01-02T18:18:50.616Z,-1.88
2023-01-02T18:21:22.506Z,-1.89
2023-01-02T18:23:52.432Z,-1.89
2023-01-02T18:26:19.414Z,-1.87
2023-01-02T18:28:57.464Z,-1.88
2023-01-02T18:31:25.372Z,-1.87
2023-01-02T18:33:54.777Z,-1.88
2023-01-02T18:36:24.470Z,-1.86
2023-01-02T18:38:59.350Z,-1.86
2023-01-02T18:41:27.416Z,-1.84
2023-01-02T18:44:01.606Z,-1.80
2023-01-02T18:47:02.033Z,-1.80
2023-01-02T18:49:29.035Z,-1.78
2023-01-02T18:51:59.082Z,-1.75
2023-01-02T18:54:29.713Z,-1.75
2023-01-02T18:56:57.602Z,-1.78
2023-01-02T18:59:32.180Z,-1.73
2023-01-02T19:02:04.502Z,-1.75
2023-01-02T19:04:38.088Z,-1.78
2023-01-02T19:07:54.143Z,-1.82
2023-01-02T19:10:51.441Z,-1.84
2023-01-02T19:13:20.490Z,-1.84
2023-01-02T19:15:55.739Z,-1.86
2023-01-02T19:18:28.086Z,-1.88
2023-01-02T19:21:33.884Z,-1.90
2023-01-02T19:24:09.427Z,-1.92
2023-01-02T19:26:36.293Z,-1.93
2023-01-02T19:29:03.460Z,-1.96
2023-01-02T19:31:57.185Z,-1.96
2023-01-02T19:34:27.112Z,-1.96
2023-01-02T19:37:02.080Z,-1.93
2023-01-02T19:39:35.945Z,-1.93
2023-01-02T19:42:21.456Z,-1.93
2023-01-02T19:44:52.431Z,-1.94
2023-01-02T19:47:20.015Z,-1.95
2023-01-02T19:49:46.997Z,-1.94
2023-01-02T19:52:16.032Z,-1.96
2023-01-02T19:54:43.357Z,-1.98
2023-01-02T19:57:11.248Z,-1.99
2023-01-02T19:59:43.497Z,-1.96
2023-01-02T20:02:11.721Z,-1.98
2023-01-02T20:04:39.079Z,-2.01
2023-01-02T20:07:06.077Z,-2.00
2023-01-02T20:09:32.928Z,-2.03
2023-01-02T20:12:18.554Z,-2.04
2023-01-02T20:14:45.588Z,-2.06
2023-01-02T20:17:12.585Z,-2.10
2023-01-02T20:19:40.263Z,-2.08
2023-01-02T20:22:07.590Z,-2.06
2023-01-02T20:24:34.610Z,-2.07
2023-01-02T20:27:02.455Z,-2.10
2023-01-02T20:29:30.912Z,-2.10
2023-01-02T20:31:59.407Z,-2.09
2023-01-02T20:34:26.417Z,-2.08
2023-01-02T20:36:54.075Z,-2.06
2023-01-02T20:39:20.960Z,-2.07
2023-01-02T20:41:47.957Z,-2.01
2023-01-02T20:44:14.985Z,-2.07
2023-01-02T20:46:42.055Z,-2.03
2023-01-02T20:49:09.312Z,-1.98
2023-01-02T20:51:36.351Z,-1.97
2023-01-02T20:54:03.973Z,-1.94
2023-01-02T20:56:31.218Z,-1.97
2023-01-02T20:58:58.508Z,-1.93
2023-01-02T21:01:25.729Z,-1.93
2023-01-02T21:03:52.782Z,-1.87
2023-01-02T21:06:20.659Z,-1.90
2023-01-02T21:08:47.806Z,-1.93
2023-01-02T21:11:14.759Z,-1.96
2023-01-02T21:13:41.620Z,-1.97
2023-01-02T21:16:08.609Z,-1.97
2023-01-02T21:18:36.970Z,-1.99
2023-01-02T21:21:05.670Z,-1.97
2023-01-02T21:23:35.400Z,-1.99
2023-01-02T21:26:02.701Z,-1.97
2023-01-02T21:28:29.664Z,-1.91
2023-01-02T21:30:56.946Z,-1.87
2023-01-02T21:33:24.969Z,-1.82
2023-01-02T21:35:52.822Z,-1.84
2023-01-02T21:38:20.464Z,-1.88
2023-01-02T21:40:47.506Z,-1.84
2023-01-02T21:43:14.533Z,-1.84
2023-01-02T21:45:41.680Z,-1.84
2023-01-02T21:48:08.634Z,-1.87
2023-01-02T21:50:35.633Z,-1.89
2023-01-02T21:53:02.661Z,-1.89
2023-01-02T21:55:29.654Z,-1.87
2023-01-02T21:58:13.865Z,-1.87
2023-01-02T22:00:41.428Z,-1.82
2023-01-02T22:03:08.706Z,-1.79
2023-01-02T22:05:35.768Z,-1.75
2023-01-02T22:08:02.701Z,-1.75
2023-01-02T22:10:29.681Z,-1.73
2023-01-02T22:12:56.609Z,-1.73
2023-01-02T22:15:24.112Z,-1.74
2023-01-02T22:17:51.068Z,-1.69
2023-01-02T22:20:17.959Z,-1.68
2023-01-02T22:22:44.867Z,-1.69
2023-01-02T22:25:11.819Z,-1.71
2023-01-02T22:27:39.738Z,-1.74
2023-01-02T22:30:20.974Z,-1.72
2023-01-02T22:32:48.844Z,-1.75
2023-01-02T22:35:17.043Z,-1.76
2023-01-02T22:37:43.899Z,-1.75
2023-01-02T22:40:11.253Z,-1.78
2023-01-02T22:43:05.293Z,-1.81
2023-01-02T22:45:40.478Z,-1.83
2023-01-02T22:48:08.578Z,-1.86
2023-01-02T22:50:41.761Z,-1.89
2023-01-02T22:53:19.380Z,-1.93
2023-01-02T22:55:46.801Z,-1.93
2023-01-02T22:58:13.899Z,-1.95
2023-01-02T23:00:41.053Z,-1.97
2023-01-02T23:03:12.665Z,-1.98
2023-01-02T23:05:39.722Z,-2.03
2023-01-02T23:08:06.823Z,-2.02
2023-01-02T23:10:33.868Z,-2.06
2023-01-02T23:13:02.135Z,-2.05
2023-01-02T23:15:29.190Z,-2.07
2023-01-02T23:18:14.687Z,-2.09
2023-01-02T23:20:41.551Z,-2.10
2023-01-02T23:23:08.470Z,-2.13
2023-01-02T23:25:39.112Z,-2.08
2023-01-02T23:28:05.960Z,-2.06
2023-01-02T23:30:32.849Z,-2.07
2023-01-02T23:32:59.728Z,-2.05
2023-01-02T23:35:26.588Z,-2.06
2023-01-02T23:37:53.559Z,-2.03
2023-01-02T23:40:20.486Z,-2.00
2023-01-02T23:42:47.332Z,-2.02
2023-01-02T23:45:14.247Z,-2.02
2023-01-02T23:47:41.141Z,-2.02
2023-01-02T23:50:08.288Z,-1.96
2023-01-02T23:52:35.211Z,-1.95
2023-01-02T23:55:02.195Z,-1.96
2023-01-02T23:57:30.225Z,-1.95
2023-01-02T23:59:57.058Z,-1.91
